createdAt,value
2018-03-29T00:02:01.277Z,98645.12
2018-03-29T00:04:28.834Z,98639.30
2018-03-29T00:06:56.611Z,98640.67
2018-03-29T00:09:24.165Z,98648.74
2018-03-29T00:11:51.792Z,98655.67
2018-03-29T00:14:19.345Z,98654.12
2018-03-29T00:16:47.052Z,98645.94
2018-03-29T00:19:14.613Z,98652.75
2018-03-29T00:21:42.170Z,98652.50
2018-03-29T00:24:09.902Z,98663.44
2018-03-29T00:26:37.618Z,98664.55
2018-03-29T00:29:05.472Z,98677.10
2018-03-29T00:31:33.030Z,98676.35
2018-03-29T00:34:00.595Z,98668.75
2018-03-29T00:36:28.222Z,98669.37
2018-03-29T00:38:55.758Z,98675.85
2018-03-29T00:41:23.561Z,98674.27
2018-03-29T00:43:51.126Z,98686.90
2018-03-29T00:46:18.999Z,98692.13
2018-03-29T00:48:46.818Z,98690.16
2018-03-29T00:51:14.604Z,98700.89
2018-03-29T00:53:45.122Z,98693.68
2018-03-29T00:56:12.882Z,98684.28
2018-03-29T00:58:40.449Z,98690.93
2018-03-29T01:01:08.108Z,98685.23
2018-03-29T01:03:35.754Z,98687.23
2018-03-29T01:06:03.329Z,98690.01
2018-03-29T01:08:33.981Z,98678.47
2018-03-29T01:11:01.590Z,98681.95
2018-03-29T01:13:29.158Z,98682.16
2018-03-29T01:15:56.935Z,98676.24
2018-03-29T01:18:24.494Z,98656.82
2018-03-29T01:20:52.406Z,98648.59
2018-03-29T01:23:19.971Z,98654.91
2018-03-29T01:25:47.541Z,98652.70
2018-03-29T01:28:15.146Z,98649.23
2018-03-29T01:30:42.913Z,98649.64
2018-03-29T01:33:10.629Z,98638.13
2018-03-29T01:35:38.193Z,98636.50
2018-03-29T01:38:05.822Z,98640.94
2018-03-29T01:40:33.386Z,98638.11
2018-03-29T01:43:00.959Z,98642.05
2018-03-29T01:45:28.752Z,98637.55
2018-03-29T01:47:56.315Z,98633.09
2018-03-29T01:50:23.893Z,98625.23
2018-03-29T01:52:51.460Z,98615.86
2018-03-29T01:55:19.091Z,98614.75
2018-03-29T01:57:46.710Z,98607.41
2018-03-29T02:00:14.278Z,98605.95
2018-03-29T02:02:42.076Z,98601.70
2018-03-29T02:05:09.889Z,98597.89
2018-03-29T02:07:37.541Z,98596.76
2018-03-29T02:10:05.337Z,98605.05
2018-03-29T02:12:32.913Z,98609.32
2018-03-29T02:15:00.486Z,98605.48
2018-03-29T02:17:28.288Z,98611.70
2018-03-29T02:19:56.102Z,98616.73
2018-03-29T02:22:23.653Z,98622.02
2018-03-29T02:24:51.222Z,98629.93
2018-03-29T02:27:18.794Z,98615.34
2018-03-29T02:29:46.576Z,98632.05
2018-03-29T02:32:14.228Z,98633.75
2018-03-29T02:34:41.792Z,98636.37
2018-03-29T02:37:09.428Z,98636.31
2018-03-29T02:39:37.245Z,98638.80
2018-03-29T02:42:04.935Z,98638.33
2018-03-29T02:44:32.648Z,98636.70
2018-03-29T02:47:00.211Z,98635.34
2018-03-29T02:49:28.018Z,98642.95
2018-03-29T02:51:55.616Z,98646.75
2018-03-29T02:54:23.234Z,98643.42
2018-03-29T02:56:50.811Z,98647.88
2018-03-29T02:59:18.375Z,98649.97
2018-03-29T03:01:46.007Z,98660.88
2018-03-29T03:04:13.608Z,98660.81
2018-03-29T03:06:41.167Z,98666.11
2018-03-29T03:09:08.748Z,98667.13
2018-03-29T03:11:36.569Z,98661.73
2018-03-29T03:14:04.582Z,98662.17
2018-03-29T03:16:32.298Z,98658.52
2018-03-29T03:18:59.873Z,98656.46
2018-03-29T03:21:27.438Z,98652.37
2018-03-29T03:23:55.002Z,98657.16
2018-03-29T03:26:22.677Z,98651.39
2018-03-29T03:28:50.697Z,98659.48
2018-03-29T03:31:18.327Z,98674.87
2018-03-29T03:33:46.141Z,98673.55
2018-03-29T03:36:13.860Z,98674.64
2018-03-29T03:38:41.783Z,98674.77
2018-03-29T03:41:09.487Z,98672.19
2018-03-29T03:43:37.059Z,98673.31
2018-03-29T03:46:04.833Z,98674.80
2018-03-29T03:48:32.643Z,98673.33
2018-03-29T03:51:01.013Z,98677.23
2018-03-29T03:53:28.790Z,98681.28
2018-03-29T03:55:56.609Z,98679.64
2018-03-29T03:58:24.530Z,98681.28
2018-03-29T04:00:52.253Z,98690.85
2018-03-29T04:03:20.065Z,98690.16
2018-03-29T04:05:47.975Z,98689.23
2018-03-29T04:08:15.551Z,98677.55
2018-03-29T04:10:43.204Z,98681.39
2018-03-29T04:13:10.903Z,98680.70
2018-03-29T04:15:38.623Z,98686.94
2018-03-29T04:18:06.196Z,98689.63
2018-03-29T04:20:33.758Z,98693.20
2018-03-29T04:23:01.383Z,98683.20
2018-03-29T04:25:29.127Z,98685.55
2018-03-29T04:27:56.722Z,98692.68
2018-03-29T04:30:24.441Z,98697.42
2018-03-29T04:32:52.017Z,98698.19
2018-03-29T04:35:19.701Z,98701.61
2018-03-29T04:37:47.278Z,98692.25
2018-03-29T04:40:14.910Z,98696.59
2018-03-29T04:42:42.470Z,98694.93
2018-03-29T04:45:10.270Z,98699.63
2018-03-29T04:47:37.854Z,98696.63
2018-03-29T04:50:05.414Z,98695.55
2018-03-29T04:52:33.225Z,98703.77
2018-03-29T04:55:00.786Z,98700.20
2018-03-29T04:57:28.415Z,98696.70
2018-03-29T04:59:55.969Z,98702.12
2018-03-29T05:02:23.581Z,98703.56
2018-03-29T05:04:51.151Z,98706.91
2018-03-29T05:07:18.721Z,98700.68
2018-03-29T05:09:46.306Z,98715.98
2018-03-29T05:12:14.066Z,98718.28
2018-03-29T05:14:41.883Z,98718.59
2018-03-29T05:17:09.674Z,98724.91
2018-03-29T05:19:37.522Z,98719.72
2018-03-29T05:22:05.340Z,98715.09
2018-03-29T05:24:32.947Z,98722.08
2018-03-29T05:27:00.776Z,98723.64
2018-03-29T05:29:28.341Z,98720.59
2018-03-29T05:31:56.174Z,98731.89
2018-03-29T05:34:23.762Z,98731.68
2018-03-29T05:36:51.549Z,98735.87
2018-03-29T05:39:19.118Z,98732.77
2018-03-29T05:41:46.691Z,98726.83
2018-03-29T05:44:14.403Z,98724.28
2018-03-29T05:46:41.971Z,98732.84
2018-03-29T05:49:09.755Z,98741.44
2018-03-29T05:51:37.319Z,98729.31
2018-03-29T05:54:04.892Z,98727.45
2018-03-29T05:56:32.692Z,98731.42
2018-03-29T05:59:00.258Z,98721.83
2018-03-29T06:01:27.843Z,98728.89
2018-03-29T06:03:55.406Z,98730.60
2018-03-29T06:06:23.034Z,98729.56
2018-03-29T06:08:50.781Z,98731.70
2018-03-29T06:11:18.347Z,98731.57
2018-03-29T06:13:45.967Z,98732.69
2018-03-29T06:16:17.748Z,98738.23
2018-03-29T06:18:45.571Z,98737.44
2018-03-29T06:21:13.134Z,98743.52
2018-03-29T06:23:40.702Z,98745.05
2018-03-29T06:26:08.268Z,98743.77
2018-03-29T06:28:35.898Z,98748.25
2018-03-29T06:31:03.466Z,98747.86
2018-03-29T06:33:31.038Z,98758.71
2018-03-29T06:35:58.614Z,98759.28
2018-03-29T06:38:26.183Z,98750.13
2018-03-29T06:40:53.891Z,98753.45
2018-03-29T06:43:21.458Z,98755.02
2018-03-29T06:45:49.074Z,98763.72
2018-03-29T06:48:16.641Z,98763.03
2018-03-29T06:50:44.214Z,98759.91
2018-03-29T06:53:12.017Z,98761.72
2018-03-29T06:55:39.588Z,98768.75
2018-03-29T06:58:07.357Z,98769.95
2018-03-29T07:00:34.932Z,98775.36
2018-03-29T07:03:02.782Z,98783.98
2018-03-29T07:05:30.507Z,98777.30
2018-03-29T07:07:58.329Z,98772.69
2018-03-29T07:10:25.902Z,98787.22
2018-03-29T07:12:53.479Z,98796.25
2018-03-29T07:15:21.057Z,98799.47
2018-03-29T07:17:48.622Z,98792.73
2018-03-29T07:20:16.246Z,98794.88
2018-03-29T07:22:44.035Z,98793.15
2018-03-29T07:25:11.610Z,98800.81
2018-03-29T07:27:39.186Z,98800.14
2018-03-29T07:30:06.757Z,98796.65
2018-03-29T07:32:34.506Z,98797.72
2018-03-29T07:35:02.088Z,98795.98
2018-03-29T07:37:29.941Z,98800.58
2018-03-29T07:39:57.502Z,98802.33
2018-03-29T07:42:25.071Z,98812.05
2018-03-29T07:44:52.633Z,98812.45
2018-03-29T07:47:20.411Z,98811.97
2018-03-29T07:49:47.985Z,98808.03
2018-03-29T07:52:15.582Z,98810.46
2018-03-29T07:54:43.365Z,98816.51
2018-03-29T07:57:10.930Z,98820.16
2018-03-29T07:59:38.582Z,98834.09
2018-03-29T08:02:06.490Z,98836.78
2018-03-29T08:04:34.212Z,98837.34
2018-03-29T08:07:02.059Z,98839.19
2018-03-29T08:09:29.875Z,98837.77
2018-03-29T08:11:57.696Z,98837.52
2018-03-29T08:14:25.526Z,98834.87
2018-03-29T08:16:53.388Z,98833.00
2018-03-29T08:19:21.475Z,98831.10
2018-03-29T08:21:49.288Z,98825.34
2018-03-29T08:24:17.205Z,98834.83
2018-03-29T08:26:45.139Z,98834.20
2018-03-29T08:29:13.150Z,98834.42
2018-03-29T08:31:40.745Z,98830.39
2018-03-29T08:34:08.314Z,98825.31
2018-03-29T08:36:35.972Z,98827.34
2018-03-29T08:39:03.688Z,98822.72
2018-03-29T08:41:31.307Z,98824.45
2018-03-29T08:43:58.887Z,98821.75
2018-03-29T08:46:26.620Z,98823.19
2018-03-29T08:48:54.469Z,98821.47
2018-03-29T08:51:22.291Z,98827.48
2018-03-29T08:53:49.997Z,98833.77
2018-03-29T08:56:17.745Z,98833.23
2018-03-29T08:58:45.344Z,98832.39
2018-03-29T09:01:13.160Z,98839.48
2018-03-29T09:03:40.980Z,98823.11
2018-03-29T09:06:08.804Z,98818.66
2018-03-29T09:08:36.370Z,98816.19
2018-03-29T09:11:04.111Z,98807.53
2018-03-29T09:13:31.685Z,98818.00
2018-03-29T09:15:59.270Z,98826.20
2018-03-29T09:18:26.855Z,98824.87
2018-03-29T09:20:54.702Z,98838.11
2018-03-29T09:23:22.433Z,98836.28
2018-03-29T09:25:50.242Z,98838.93
2018-03-29T09:28:17.806Z,98839.98
2018-03-29T09:30:45.543Z,98842.73
2018-03-29T09:33:13.112Z,98842.52
2018-03-29T09:35:40.858Z,98844.56
2018-03-29T09:38:08.547Z,98846.97
2018-03-29T09:40:36.351Z,98842.92
2018-03-29T09:43:03.926Z,98826.49
2018-03-29T09:45:31.498Z,98841.84
2018-03-29T09:47:59.054Z,98840.67
2018-03-29T09:50:26.644Z,98835.91
2018-03-29T09:52:54.229Z,98844.24
2018-03-29T09:55:21.797Z,98840.93
2018-03-29T09:57:49.364Z,98828.29
2018-03-29T10:00:17.293Z,98829.73
2018-03-29T10:02:50.258Z,98824.17
2018-03-29T10:05:17.866Z,98825.01
2018-03-29T10:07:45.457Z,98822.77
2018-03-29T10:10:13.014Z,98817.95
2018-03-29T10:12:40.704Z,98813.48
2018-03-29T10:15:08.269Z,98818.81
2018-03-29T10:17:35.887Z,98813.34
2018-03-29T10:20:03.508Z,98814.10
2018-03-29T10:22:31.066Z,98821.48
2018-03-29T10:24:58.650Z,98810.78
2018-03-29T10:27:26.376Z,98815.78
2018-03-29T10:29:54.126Z,98815.26
2018-03-29T10:32:21.697Z,98812.79
2018-03-29T10:34:49.563Z,98820.41
2018-03-29T10:37:17.122Z,98827.08
2018-03-29T10:39:44.785Z,98832.58
2018-03-29T10:42:12.374Z,98833.16
2018-03-29T10:44:39.938Z,98832.30
2018-03-29T10:47:07.502Z,98829.45
2018-03-29T10:49:35.269Z,98826.77
2018-03-29T10:52:02.911Z,98831.77
2018-03-29T10:54:30.705Z,98823.16
2018-03-29T10:56:58.323Z,98824.97
2018-03-29T10:59:25.916Z,98819.92
2018-03-29T11:01:53.479Z,98820.50
2018-03-29T11:04:21.067Z,98814.64
2018-03-29T11:06:48.645Z,98804.87
2018-03-29T11:09:16.513Z,98804.66
2018-03-29T11:11:44.088Z,98809.00
2018-03-29T11:14:11.654Z,98800.34
2018-03-29T11:16:39.256Z,98792.89
2018-03-29T11:19:06.822Z,98796.78
2018-03-29T11:21:34.406Z,98794.55
2018-03-29T11:24:02.320Z,98793.55
2018-03-29T11:26:30.141Z,98784.13
2018-03-29T11:28:57.748Z,98788.05
2018-03-29T11:31:25.476Z,98782.02
2018-03-29T11:33:53.293Z,98790.01
2018-03-29T11:36:20.931Z,98783.48
2018-03-29T11:38:48.537Z,98786.11
2018-03-29T11:41:16.154Z,98770.23
2018-03-29T11:43:43.944Z,98785.08
2018-03-29T11:46:11.509Z,98773.73
2018-03-29T11:48:39.070Z,98777.39
2018-03-29T11:51:06.794Z,98772.58
2018-03-29T11:53:34.363Z,98777.11
2018-03-29T11:56:01.966Z,98761.87
2018-03-29T11:58:29.772Z,98766.56
2018-03-29T12:00:57.395Z,98758.63
2018-03-29T12:03:24.998Z,98763.65
2018-03-29T12:05:52.795Z,98754.86
2018-03-29T12:08:20.360Z,98757.75
2018-03-29T12:10:48.162Z,98750.67
2018-03-29T12:13:15.732Z,98747.84
2018-03-29T12:15:43.290Z,98743.55
2018-03-29T12:18:10.910Z,98742.52
2018-03-29T12:20:38.483Z,98744.88
2018-03-29T12:23:06.066Z,98749.20
2018-03-29T12:25:33.636Z,98753.33
2018-03-29T12:28:01.194Z,98748.03
2018-03-29T12:30:28.777Z,98742.84
2018-03-29T12:32:56.409Z,98743.61
2018-03-29T12:35:24.239Z,98739.26
2018-03-29T12:37:51.814Z,98742.50
2018-03-29T12:40:19.575Z,98738.50
2018-03-29T12:42:47.395Z,98740.61
2018-03-29T12:45:15.213Z,98741.63
2018-03-29T12:47:43.031Z,98739.61
2018-03-29T12:50:10.850Z,98740.20
2018-03-29T12:52:38.472Z,98736.23
2018-03-29T12:58:09.685Z,98733.52
2018-03-29T13:00:37.419Z,98730.81
2018-03-29T13:03:05.266Z,98726.37
2018-03-29T13:05:32.894Z,98727.33
2018-03-29T13:08:00.706Z,98729.77
2018-03-29T13:10:28.293Z,98729.53
2018-03-29T13:12:55.861Z,98727.27
2018-03-29T13:15:23.661Z,98717.55
2018-03-29T13:17:51.394Z,98715.53
2018-03-29T13:20:18.961Z,98709.17
2018-03-29T13:22:46.718Z,98724.83
2018-03-29T13:25:14.291Z,98722.11
2018-03-29T13:27:41.861Z,98723.83
2018-03-29T13:30:09.666Z,98726.81
2018-03-29T13:32:37.304Z,98724.28
2018-03-29T13:35:04.875Z,98709.61
2018-03-29T13:37:32.440Z,98717.64
2018-03-29T13:40:00.237Z,98717.55
2018-03-29T13:42:27.794Z,98722.91
2018-03-29T13:44:55.575Z,98726.31
2018-03-29T13:47:23.391Z,98715.32
2018-03-29T13:49:51.106Z,98716.25
2018-03-29T13:52:18.817Z,98715.77
2018-03-29T13:54:46.389Z,98717.29
2018-03-29T13:57:13.958Z,98710.31
2018-03-29T13:59:41.551Z,98713.23
2018-03-29T14:02:09.118Z,98709.59
2018-03-29T14:04:36.927Z,98704.08
2018-03-29T14:07:04.557Z,98702.73
2018-03-29T14:09:32.141Z,98710.25
2018-03-29T14:11:59.694Z,98708.53
2018-03-29T14:14:27.272Z,98712.31
2018-03-29T14:16:54.835Z,98710.66
2018-03-29T14:19:22.453Z,98706.84
2018-03-29T14:21:50.699Z,98706.61
2018-03-29T14:24:18.438Z,98715.31
2018-03-29T14:26:46.009Z,98711.67
2018-03-29T14:29:13.570Z,98711.27
2018-03-29T14:31:41.196Z,98712.05
2018-03-29T14:34:08.785Z,98712.09
2018-03-29T14:36:36.550Z,98708.08
2018-03-29T14:39:04.511Z,98706.93
2018-03-29T14:41:32.137Z,98705.84
2018-03-29T14:44:00.101Z,98699.35
2018-03-29T14:46:27.693Z,98701.49
2018-03-29T14:48:55.405Z,98698.73
2018-03-29T14:51:22.978Z,98711.53
2018-03-29T14:53:50.545Z,98708.70
2018-03-29T14:56:18.154Z,98706.22
2018-03-29T14:58:45.714Z,98706.32
2018-03-29T15:01:13.316Z,98707.70
2018-03-29T15:03:40.890Z,98706.73
2018-03-29T15:06:08.455Z,98706.89
2018-03-29T15:08:36.082Z,98700.16
2018-03-29T15:11:03.662Z,98706.85
2018-03-29T15:13:31.256Z,98709.75
2018-03-29T15:15:59.038Z,98708.08
2018-03-29T15:18:26.646Z,98718.88
2018-03-29T15:20:54.290Z,98718.23
2018-03-29T15:23:21.858Z,98716.03
2018-03-29T15:25:49.609Z,98711.42
2018-03-29T15:28:17.189Z,98718.05
2018-03-29T15:30:44.827Z,98717.23
2018-03-29T15:33:12.533Z,98725.32
2018-03-29T15:35:41.075Z,98724.70
2018-03-29T15:38:09.003Z,98724.35
2018-03-29T15:40:36.738Z,98731.26
2018-03-29T15:43:04.407Z,98730.30
2018-03-29T15:45:31.990Z,98736.36
2018-03-29T15:47:59.560Z,98730.36
2018-03-29T15:50:27.187Z,98742.36
2018-03-29T15:52:54.792Z,98751.70
2018-03-29T15:55:22.426Z,98749.20
2018-03-29T15:57:50.152Z,98745.36
2018-03-29T16:00:17.940Z,98741.78
2018-03-29T16:02:45.518Z,98740.36
2018-03-29T16:05:13.083Z,98748.28
2018-03-29T16:07:40.819Z,98748.37
2018-03-29T16:10:08.429Z,98750.28
2018-03-29T16:12:37.218Z,98753.45
2018-03-29T16:15:04.862Z,98758.77
2018-03-29T16:17:32.694Z,98753.80
2018-03-29T16:20:00.270Z,98752.87
2018-03-29T16:22:27.838Z,98758.48
2018-03-29T16:24:55.460Z,98764.34
2018-03-29T16:27:23.265Z,98767.76
2018-03-29T16:29:50.834Z,98772.48
2018-03-29T16:32:18.420Z,98769.19
2018-03-29T16:34:45.986Z,98770.94
2018-03-29T16:37:13.580Z,98770.22
2018-03-29T16:39:41.149Z,98769.67
2018-03-29T16:42:08.770Z,98773.56
2018-03-29T16:44:36.490Z,98768.57
2018-03-29T16:47:04.309Z,98764.41
2018-03-29T16:49:31.874Z,98763.45
2018-03-29T16:51:59.645Z,98768.42
2018-03-29T16:54:27.233Z,98765.30
2018-03-29T16:56:54.814Z,98773.28
2018-03-29T16:59:22.753Z,98776.42
2018-03-29T17:01:50.310Z,98780.31
2018-03-29T17:04:18.036Z,98781.06
2018-03-29T17:06:45.618Z,98781.83
2018-03-29T17:09:13.192Z,98788.91
2018-03-29T17:11:40.801Z,98792.47
2018-03-29T17:14:08.379Z,98796.55
2018-03-29T17:16:36.022Z,98801.20
2018-03-29T17:19:03.734Z,98802.45
2018-03-29T17:21:31.461Z,98803.76
2018-03-29T17:23:59.069Z,98804.59
2018-03-29T17:26:26.801Z,98804.32
2018-03-29T17:28:54.382Z,98806.38
2018-03-29T17:31:21.949Z,98813.20
2018-03-29T17:33:49.642Z,98816.08
2018-03-29T17:36:17.206Z,98818.67
2018-03-29T17:38:44.782Z,98821.08
2018-03-29T17:41:12.416Z,98820.47
2018-03-29T17:43:39.954Z,98822.98
2018-03-29T17:46:07.630Z,98816.62
2018-03-29T17:48:35.348Z,98829.28
2018-03-29T17:51:03.136Z,98831.33
2018-03-29T17:53:30.876Z,98836.99
2018-03-29T17:55:58.442Z,98841.30
2018-03-29T17:58:26.231Z,98840.83
2018-03-29T18:00:53.930Z,98836.59
2018-03-29T18:03:21.767Z,98838.41
2018-03-29T18:05:49.360Z,98834.88
2018-03-29T18:08:17.202Z,98838.35
2018-03-29T18:10:44.812Z,98838.48
2018-03-29T18:13:12.386Z,98835.87
2018-03-29T18:15:40.130Z,98836.61
2018-03-29T18:18:07.699Z,98835.41
2018-03-29T18:20:35.290Z,98842.16
2018-03-29T18:23:03.112Z,98847.66
2018-03-29T18:25:30.820Z,98841.56
2018-03-29T18:27:58.395Z,98845.38
2018-03-29T18:30:25.972Z,98844.52
2018-03-29T18:32:53.716Z,98844.51
2018-03-29T18:35:21.501Z,98847.55
2018-03-29T18:37:49.096Z,98845.02
2018-03-29T18:40:16.665Z,98856.10
2018-03-29T18:42:44.286Z,98852.61
2018-03-29T18:45:11.887Z,98848.45
2018-03-29T18:47:39.490Z,98853.43
2018-03-29T18:50:07.308Z,98850.11
2018-03-29T18:52:35.027Z,98858.14
2018-03-29T18:55:02.657Z,98860.66
2018-03-29T18:57:30.222Z,98866.13
2018-03-29T18:59:57.822Z,98873.13
2018-03-29T19:02:25.397Z,98867.77
2018-03-29T19:04:52.986Z,98872.58
2018-03-29T19:07:20.826Z,98872.41
2018-03-29T19:09:48.408Z,98871.94
2018-03-29T19:12:15.984Z,98878.77
2018-03-29T19:14:43.798Z,98868.73
2018-03-29T19:17:11.378Z,98864.98
2018-03-29T19:19:39.225Z,98869.92
2018-03-29T19:22:06.820Z,98877.92
2018-03-29T19:24:34.443Z,98872.75
2018-03-29T19:27:02.069Z,98882.90
2018-03-29T19:29:29.893Z,98880.19
2018-03-29T19:31:57.525Z,98888.47
2018-03-29T19:34:25.302Z,98892.66
2018-03-29T19:36:52.880Z,98893.20
2018-03-29T19:39:20.467Z,98892.52
2018-03-29T19:41:48.287Z,98888.29
2018-03-29T19:44:16.108Z,98891.34
2018-03-29T19:46:43.673Z,98894.42
2018-03-29T19:49:11.542Z,98898.21
2018-03-29T19:51:39.104Z,98903.09
2018-03-29T19:54:06.671Z,98908.69
2018-03-29T19:56:34.287Z,98901.41
2018-03-29T19:59:02.014Z,98899.86
2018-03-29T20:01:29.833Z,98900.58
2018-03-29T20:03:57.434Z,98896.91
2018-03-29T20:06:24.998Z,98897.40
2018-03-29T20:08:52.667Z,98902.41
2018-03-29T20:11:20.282Z,98895.86
2018-03-29T20:13:48.124Z,98896.11
2018-03-29T20:16:15.690Z,98907.61
2018-03-29T20:18:43.251Z,98908.16
2018-03-29T20:21:10.823Z,98907.32
2018-03-29T20:23:38.378Z,98910.45
2018-03-29T20:26:06.022Z,98911.09
2018-03-29T20:28:33.666Z,98914.21
2018-03-29T20:31:01.226Z,98914.84
2018-03-29T20:33:28.815Z,98908.91
2018-03-29T20:35:56.474Z,98917.19
2018-03-29T20:38:24.171Z,98918.22
2018-03-29T20:40:51.730Z,98909.78
2018-03-29T20:43:19.536Z,98912.02
2018-03-29T20:45:47.110Z,98922.62
2018-03-29T20:48:14.662Z,98921.33
2018-03-29T20:50:42.234Z,98916.31
2018-03-29T20:53:09.790Z,98897.67
2018-03-29T20:55:37.520Z,98914.83
2018-03-29T20:58:05.094Z,98912.63
2018-03-29T21:00:32.860Z,98920.94
2018-03-29T21:03:00.461Z,98916.29
2018-03-29T21:05:28.024Z,98919.37
2018-03-29T21:07:55.837Z,98919.66
2018-03-29T21:10:23.412Z,98915.95
2018-03-29T21:12:51.134Z,98904.83
2018-03-29T21:15:18.707Z,98907.66
2018-03-29T21:17:46.265Z,98901.68
2018-03-29T21:20:13.986Z,98907.27
2018-03-29T21:22:41.550Z,98893.54
2018-03-29T21:25:09.177Z,98895.59
2018-03-29T21:27:36.957Z,98892.34
2018-03-29T21:30:04.587Z,98885.58
2018-03-29T21:32:32.174Z,98882.23
2018-03-29T21:34:59.914Z,98877.47
2018-03-29T21:37:27.732Z,98877.56
2018-03-29T21:39:55.284Z,98877.30
2018-03-29T21:42:22.926Z,98874.02
2018-03-29T21:44:50.485Z,98876.04
2018-03-29T21:47:18.301Z,98882.66
2018-03-29T21:49:45.912Z,98883.50
2018-03-29T21:52:13.478Z,98878.57
2018-03-29T21:54:41.086Z,98879.97
2018-03-29T21:57:08.833Z,98878.33
2018-03-29T21:59:36.386Z,98869.33
2018-03-29T22:02:03.976Z,98876.76
2018-03-29T22:04:31.544Z,98872.70
2018-03-29T22:06:59.185Z,98878.94
2018-03-29T22:09:26.782Z,98885.65
2018-03-29T22:11:54.582Z,98883.19
2018-03-29T22:14:22.398Z,98892.00
2018-03-29T22:16:49.961Z,98889.94
2018-03-29T22:19:17.574Z,98883.84
2018-03-29T22:21:45.355Z,98889.84
2018-03-29T22:24:13.838Z,98888.46
2018-03-29T22:26:41.412Z,98889.02
2018-03-29T22:29:09.210Z,98887.92
2018-03-29T22:31:37.029Z,98890.61
2018-03-29T22:34:04.743Z,98895.34
2018-03-29T22:36:32.374Z,98892.09
2018-03-29T22:39:00.182Z,98900.38
2018-03-29T22:41:27.900Z,98902.89
2018-03-29T22:43:55.463Z,98902.89
2018-03-29T22:46:23.240Z,98903.98
2018-03-29T22:48:50.805Z,98901.30
2018-03-29T22:51:18.366Z,98903.59
2018-03-29T22:53:46.018Z,98906.95
2018-03-29T22:56:13.579Z,98904.86
2018-03-29T22:58:41.137Z,98908.62
2018-03-29T23:01:08.734Z,98904.97
2018-03-29T23:03:36.364Z,98907.56
2018-03-29T23:06:04.179Z,98904.92
2018-03-29T23:08:31.889Z,98903.97
2018-03-29T23:10:59.716Z,98898.70
2018-03-29T23:13:27.274Z,98897.63
2018-03-29T23:15:55.052Z,98895.24
2018-03-29T23:18:22.870Z,98899.21
2018-03-29T23:20:50.589Z,98894.73
2018-03-29T23:23:18.168Z,98890.02
2018-03-29T23:25:45.898Z,98887.92
2018-03-29T23:28:13.586Z,98893.11
2018-03-29T23:30:41.330Z,98887.88
2018-03-29T23:33:08.885Z,98891.11
2018-03-29T23:35:36.697Z,98893.06
2018-03-29T23:38:04.319Z,98893.95
2018-03-29T23:40:32.051Z,98881.74
2018-03-29T23:42:59.811Z,98888.67
2018-03-29T23:45:27.726Z,98886.05
2018-03-29T23:47:55.330Z,98890.35
2018-03-29T23:50:23.107Z,98892.40
2018-03-29T23:52:50.678Z,98887.51
2018-03-29T23:55:18.242Z,98890.18
2018-03-29T23:57:45.926Z,98891.31
